createdAt,value
2022-09-21T00:01:39.972Z,23.44
2022-09-21T00:06:42.629Z,23.39
2022-09-21T00:11:45.286Z,23.37
2022-09-21T00:16:49.446Z,23.35
2022-09-21T00:21:55.404Z,23.30
2022-09-21T00:26:57.982Z,23.28
2022-09-21T00:32:02.636Z,23.23
2022-09-21T00:37:05.406Z,23.20
2022-09-21T00:42:11.234Z,23.16
2022-09-21T00:47:17.283Z,23.13
2022-09-21T00:52:21.963Z,23.09
2022-09-21T00:57:27.661Z,23.04
2022-09-21T01:02:31.661Z,23.00
2022-09-21T01:07:38.057Z,22.96
2022-09-21T01:12:56.444Z,22.93
2022-09-21T01:18:12.105Z,22.89
2022-09-21T01:23:50.082Z,22.86
2022-09-21T01:29:21.055Z,22.83
2022-09-21T01:34:29.840Z,22.79
2022-09-21T01:39:35.863Z,22.76
2022-09-21T01:44:41.423Z,22.75
2022-09-21T01:49:48.332Z,22.70
2022-09-21T01:54:55.233Z,22.67
2022-09-21T02:00:01.281Z,22.64
2022-09-21T02:05:17.139Z,22.62
2022-09-21T02:10:24.621Z,22.59
2022-09-21T02:15:37.350Z,22.56
2022-09-21T02:20:46.396Z,22.55
2022-09-21T02:25:55.351Z,22.52
2022-09-21T02:31:13.826Z,22.49
2022-09-21T02:36:23.704Z,22.46
2022-09-21T02:41:31.971Z,22.43
2022-09-21T02:46:42.536Z,22.41
2022-09-21T02:51:48.910Z,22.39
2022-09-21T02:56:52.729Z,22.37
2022-09-21T03:01:56.882Z,22.34
2022-09-21T03:06:59.825Z,22.33
2022-09-21T03:12:02.912Z,22.31
2022-09-21T03:17:07.007Z,22.30
2022-09-21T03:22:09.597Z,22.27
2022-09-21T03:27:12.227Z,22.27
2022-09-21T03:32:17.138Z,22.27
2022-09-21T03:37:19.872Z,22.26
2022-09-21T03:42:22.482Z,22.25
2022-09-21T03:47:26.608Z,22.22
2022-09-21T03:52:29.263Z,22.21
2022-09-21T03:57:31.868Z,22.20
2022-09-21T04:02:36.163Z,22.16
2022-09-21T04:07:40.658Z,22.13
2022-09-21T04:12:44.724Z,22.11
2022-09-21T04:17:52.083Z,22.09
2022-09-21T04:22:54.699Z,22.09
2022-09-21T04:27:57.317Z,22.06
2022-09-21T04:33:01.272Z,22.06
2022-09-21T04:38:03.934Z,22.03
2022-09-21T04:43:07.056Z,22.03
2022-09-21T04:48:11.535Z,22.00
2022-09-21T04:53:14.109Z,22.00
2022-09-21T04:58:21.256Z,21.97
2022-09-21T05:03:27.908Z,21.95
2022-09-21T05:08:48.497Z,21.94
2022-09-21T05:13:51.685Z,21.91
2022-09-21T05:18:55.997Z,21.89
2022-09-21T05:23:58.662Z,21.89
2022-09-21T05:29:01.875Z,21.88
2022-09-21T05:34:13.361Z,21.86
2022-09-21T05:39:16.577Z,21.86
2022-09-21T05:44:21.673Z,21.86
2022-09-21T05:49:36.855Z,21.85
2022-09-21T05:54:53.505Z,21.86
2022-09-21T06:00:05.163Z,21.85
2022-09-21T06:05:17.153Z,21.85
2022-09-21T06:10:19.992Z,21.84
2022-09-21T06:15:22.591Z,21.86
2022-09-21T06:20:26.625Z,21.85
2022-09-21T06:25:29.266Z,21.85
2022-09-21T06:30:33.195Z,21.86
2022-09-21T06:35:38.045Z,21.85
2022-09-21T06:40:40.676Z,21.85
2022-09-21T06:45:43.318Z,21.82
2022-09-21T06:50:47.324Z,21.85
2022-09-21T06:55:49.869Z,21.84
2022-09-21T07:00:53.016Z,21.83
2022-09-21T07:05:57.042Z,21.85
2022-09-21T07:11:00.011Z,21.85
2022-09-21T07:16:05.334Z,21.87
2022-09-21T07:21:10.981Z,21.86
2022-09-21T07:26:15.138Z,21.87
2022-09-21T07:31:18.366Z,21.85
2022-09-21T07:36:22.349Z,21.86
2022-09-21T07:41:25.153Z,21.86
2022-09-21T07:46:27.715Z,21.86
2022-09-21T07:51:32.350Z,21.88
2022-09-21T07:56:34.927Z,21.88
2022-09-21T08:01:39.573Z,21.88
2022-09-21T08:06:43.474Z,21.88
2022-09-21T08:11:47.017Z,21.89
2022-09-21T08:16:49.796Z,21.89
2022-09-21T08:21:57.554Z,21.89
2022-09-21T08:27:01.092Z,21.91
2022-09-21T08:32:04.138Z,21.92
2022-09-21T08:37:08.152Z,21.93
2022-09-21T08:42:25.185Z,21.28
2022-09-21T08:47:39.046Z,20.60
2022-09-21T08:52:46.270Z,19.96
2022-09-21T08:57:49.563Z,19.87
2022-09-21T09:03:20.640Z,19.55
2022-09-21T09:08:41.556Z,19.60
2022-09-21T09:14:01.903Z,19.45
2022-09-21T09:19:20.154Z,19.17
2022-09-21T09:24:33.587Z,19.70
2022-09-21T09:29:46.338Z,20.06
2022-09-21T09:34:58.357Z,20.30
2022-09-21T09:40:02.976Z,20.47
2022-09-21T09:45:23.896Z,20.60
2022-09-21T09:50:31.047Z,20.71
2022-09-21T09:55:40.598Z,20.80
2022-09-21T10:00:43.235Z,20.91
2022-09-21T10:05:46.572Z,20.99
2022-09-21T10:10:50.839Z,21.05
2022-09-21T10:15:56.991Z,21.11
2022-09-21T10:21:03.950Z,21.19
2022-09-21T10:26:10.819Z,21.23
2022-09-21T10:31:22.392Z,21.29
2022-09-21T10:36:33.876Z,21.36
2022-09-21T10:41:38.792Z,21.43
2022-09-21T10:46:41.407Z,21.49
2022-09-21T10:51:47.993Z,21.57
2022-09-21T10:56:55.632Z,21.60
2022-09-21T11:02:00.267Z,21.67
2022-09-21T11:07:09.959Z,21.47
2022-09-21T11:12:30.468Z,21.10
2022-09-21T11:17:40.072Z,20.93
2022-09-21T11:22:55.410Z,21.23
2022-09-21T11:28:12.959Z,21.43
2022-09-21T11:33:31.656Z,21.56
2022-09-21T11:38:44.876Z,21.64
2022-09-21T11:44:12.736Z,21.72
2022-09-21T11:49:34.502Z,21.86
2022-09-21T11:55:01.701Z,21.98
2022-09-21T12:00:15.385Z,21.94
2022-09-21T12:05:25.210Z,21.93
2022-09-21T12:10:49.390Z,21.95
2022-09-21T12:16:02.884Z,22.00
2022-09-21T12:21:14.469Z,22.06
2022-09-21T12:26:21.573Z,22.12
2022-09-21T12:31:39.009Z,22.18
2022-09-21T12:36:47.683Z,22.23
2022-09-21T12:41:55.843Z,22.30
2022-09-21T12:47:10.064Z,22.35
2022-09-21T12:52:18.762Z,22.41
2022-09-21T12:57:49.099Z,22.51
2022-09-21T13:03:01.827Z,22.61
2022-09-21T13:08:12.218Z,22.71
2022-09-21T13:13:24.223Z,22.82
2022-09-21T13:18:35.849Z,22.98
2022-09-21T13:23:41.988Z,23.01
2022-09-21T13:29:36.451Z,23.15
2022-09-21T13:34:41.912Z,23.27
2022-09-21T13:39:45.588Z,23.40
2022-09-21T13:44:48.491Z,23.52
2022-09-21T13:49:58.373Z,23.62
2022-09-21T13:55:05.838Z,23.70
2022-09-21T14:00:36.094Z,23.69
2022-09-21T14:05:44.732Z,23.66
2022-09-21T14:10:54.067Z,23.63
2022-09-21T14:16:17.059Z,23.66
2022-09-21T14:21:21.761Z,23.70
2022-09-21T14:26:35.546Z,23.66
2022-09-21T14:31:39.782Z,23.68
2022-09-21T14:36:49.998Z,23.65
2022-09-21T14:41:56.213Z,23.68
2022-09-21T14:47:16.681Z,23.71
2022-09-21T14:52:32.873Z,23.79
2022-09-21T14:57:50.777Z,23.76
2022-09-21T15:03:09.585Z,23.75
2022-09-21T15:09:12.223Z,23.69
2022-09-21T15:14:21.905Z,23.62
2022-09-21T15:19:26.869Z,23.71
2022-09-21T15:24:34.192Z,23.77
2022-09-21T15:29:38.632Z,23.81
2022-09-21T15:34:41.755Z,23.82
2022-09-21T15:39:45.935Z,23.93
2022-09-21T15:44:50.634Z,23.98
2022-09-21T15:49:56.931Z,24.07
2022-09-21T15:55:07.272Z,24.21
2022-09-21T16:00:21.360Z,24.28
2022-09-21T16:05:25.499Z,24.33
2022-09-21T16:10:41.434Z,24.35
2022-09-21T16:16:01.217Z,24.39
2022-09-21T16:21:14.576Z,24.39
2022-09-21T16:26:25.756Z,24.41
2022-09-21T16:31:33.729Z,24.42
2022-09-21T16:36:45.365Z,24.38
2022-09-21T16:41:52.847Z,24.38
2022-09-21T16:46:59.567Z,24.39
2022-09-21T16:52:03.237Z,24.40
2022-09-21T16:57:07.784Z,24.39
2022-09-21T17:02:13.454Z,24.33
2022-09-21T17:07:16.753Z,24.36
2022-09-21T17:12:22.084Z,24.33
2022-09-21T17:17:26.856Z,24.29
2022-09-21T17:22:29.991Z,24.33
2022-09-21T17:27:34.238Z,24.32
2022-09-21T17:32:38.864Z,24.36
2022-09-21T17:37:41.574Z,24.35
2022-09-21T17:42:48.291Z,24.37
2022-09-21T17:47:51.976Z,24.41
2022-09-21T17:53:13.670Z,24.39
2022-09-21T17:58:33.630Z,24.43
2022-09-21T18:03:41.230Z,24.46
2022-09-21T18:08:45.029Z,24.48
2022-09-21T18:13:59.581Z,24.45
2022-09-21T18:19:21.599Z,24.47
2022-09-21T18:24:31.093Z,24.45
2022-09-21T18:29:41.395Z,24.46
2022-09-21T18:35:01.216Z,24.43
2022-09-21T18:40:14.911Z,24.44
2022-09-21T18:45:23.404Z,24.42
2022-09-21T18:50:35.054Z,24.41
2022-09-21T18:55:38.205Z,24.45
2022-09-21T19:00:43.357Z,24.47
2022-09-21T19:05:57.411Z,24.48
2022-09-21T19:11:06.586Z,24.48
2022-09-21T19:16:22.697Z,24.50
2022-09-21T19:21:36.455Z,24.48
2022-09-21T19:26:48.817Z,24.48
2022-09-21T19:31:53.196Z,24.48
2022-09-21T19:36:57.203Z,24.48
2022-09-21T19:42:11.396Z,24.50
2022-09-21T19:47:25.843Z,24.52
2022-09-21T19:52:33.070Z,24.51
2022-09-21T19:57:54.123Z,24.52
2022-09-21T20:03:04.799Z,24.50
2022-09-21T20:08:17.659Z,24.49
2022-09-21T20:13:31.301Z,24.53
2022-09-21T20:18:41.652Z,24.55
2022-09-21T20:23:48.798Z,24.53
2022-09-21T20:28:55.059Z,24.53
2022-09-21T20:33:59.039Z,24.47
2022-09-21T20:39:03.277Z,24.49
2022-09-21T20:44:05.881Z,24.52
2022-09-21T20:49:10.204Z,24.57
2022-09-21T20:54:12.773Z,24.55
2022-09-21T20:59:15.360Z,24.57
2022-09-21T21:04:19.555Z,24.56
2022-09-21T21:09:22.415Z,24.50
2022-09-21T21:14:25.836Z,24.47
2022-09-21T21:19:31.452Z,24.41
2022-09-21T21:24:44.021Z,24.40
2022-09-21T21:29:49.950Z,24.40
2022-09-21T21:34:55.056Z,24.38
2022-09-21T21:39:57.755Z,24.35
2022-09-21T21:45:00.309Z,24.33
2022-09-21T21:50:04.341Z,24.29
2022-09-21T21:55:07.818Z,24.28
2022-09-21T22:00:12.036Z,24.26
2022-09-21T22:05:16.352Z,24.23
2022-09-21T22:10:19.007Z,24.18
2022-09-21T22:15:21.590Z,24.15
2022-09-21T22:20:25.700Z,24.12
2022-09-21T22:25:29.403Z,24.08
2022-09-21T22:30:32.130Z,24.00
2022-09-21T22:35:36.031Z,23.95
2022-09-21T22:40:38.874Z,23.89
2022-09-21T22:45:41.529Z,23.86
2022-09-21T22:50:45.679Z,23.81
2022-09-21T22:55:48.435Z,23.77
2022-09-21T23:00:51.085Z,23.70
2022-09-21T23:05:58.130Z,23.66
2022-09-21T23:11:07.439Z,23.58
2022-09-21T23:16:12.379Z,23.54
2022-09-21T23:21:21.155Z,23.50
2022-09-21T23:26:26.007Z,23.44
2022-09-21T23:31:29.922Z,23.41
2022-09-21T23:36:34.809Z,23.38
2022-09-21T23:41:37.784Z,23.35
2022-09-21T23:46:41.058Z,23.30
2022-09-21T23:51:45.094Z,23.26
2022-09-21T23:56:47.733Z,23.22
